createdAt,value
2023-05-12T00:00:09.594Z,1.33
2023-05-12T00:02:39.131Z,1.40
2023-05-12T00:05:06.092Z,1.35
2023-05-12T00:07:32.825Z,1.38
2023-05-12T00:09:59.440Z,1.30
2023-05-12T00:12:26.146Z,1.33
2023-05-12T00:14:52.802Z,1.33
2023-05-12T00:17:19.424Z,1.38
2023-05-12T00:19:46.847Z,1.23
2023-05-12T00:22:15.474Z,1.20
2023-05-12T00:24:42.046Z,1.27
2023-05-12T00:27:08.756Z,1.25
2023-05-12T00:29:36.706Z,1.05
2023-05-12T00:32:04.169Z,1.00
2023-05-12T00:34:30.801Z,1.08
2023-05-12T00:36:57.386Z,0.80
2023-05-12T00:39:23.981Z,0.90
2023-05-12T00:41:56.184Z,0.70
2023-05-12T00:44:22.983Z,0.95
2023-05-12T00:46:50.621Z,0.68
2023-05-12T00:49:17.279Z,0.88
2023-05-12T00:51:43.966Z,0.60
2023-05-12T00:54:10.674Z,0.75
2023-05-12T00:56:39.469Z,0.70
2023-05-12T00:59:08.765Z,0.75
2023-05-12T01:01:38.829Z,0.63
2023-05-12T01:04:05.901Z,0.40
2023-05-12T01:06:39.644Z,0.60
2023-05-12T01:09:08.619Z,0.50
2023-05-12T01:11:35.536Z,0.50
2023-05-12T01:14:02.586Z,0.60
2023-05-12T01:16:50.063Z,0.55
2023-05-12T01:19:37.995Z,0.50
2023-05-12T01:22:05.700Z,0.50
2023-05-12T01:24:36.168Z,0.60
2023-05-12T01:27:03.683Z,0.40
2023-05-12T01:29:31.721Z,0.50
2023-05-12T01:31:59.164Z,0.60
2023-05-12T01:34:26.096Z,0.65
2023-05-12T01:36:52.704Z,0.77
2023-05-12T01:39:19.699Z,0.50
2023-05-12T01:41:46.592Z,0.52
2023-05-12T01:44:13.461Z,0.55
2023-05-12T01:46:40.130Z,0.45
2023-05-12T01:49:06.935Z,0.32
2023-05-12T01:51:34.060Z,0.47
2023-05-12T01:54:00.945Z,0.50
2023-05-12T01:56:31.532Z,0.50
2023-05-12T01:58:58.269Z,0.50
2023-05-12T02:01:28.643Z,0.60
2023-05-12T02:03:56.875Z,0.50
2023-05-12T02:06:26.242Z,0.40
2023-05-12T02:08:53.172Z,0.70
2023-05-12T02:11:19.972Z,0.70
2023-05-12T02:13:46.589Z,0.47
2023-05-12T02:16:14.156Z,0.65
2023-05-12T02:18:41.908Z,0.60
2023-05-12T02:21:08.540Z,0.40
2023-05-12T02:23:35.172Z,0.60
2023-05-12T02:26:01.923Z,0.40
2023-05-12T02:28:28.586Z,0.50
2023-05-12T02:30:55.227Z,0.50
2023-05-12T02:33:23.204Z,0.45
2023-05-12T02:35:50.580Z,0.60
2023-05-12T02:38:17.278Z,0.60
2023-05-12T02:40:43.949Z,0.60
2023-05-12T02:43:11.166Z,0.60
2023-05-12T02:45:37.967Z,0.70
2023-05-12T02:48:04.898Z,0.60
2023-05-12T02:50:31.585Z,0.80
2023-05-12T02:52:58.350Z,0.70
2023-05-12T02:55:25.074Z,0.68
2023-05-12T02:57:51.669Z,0.60
2023-05-12T03:00:18.448Z,0.60
2023-05-12T03:02:45.558Z,0.60
2023-05-12T03:05:12.187Z,0.70
2023-05-12T03:07:39.464Z,0.63
2023-05-12T03:10:06.693Z,0.70
2023-05-12T03:12:33.279Z,0.82
2023-05-12T03:14:59.912Z,0.80
2023-05-12T03:17:26.809Z,0.80
2023-05-12T03:19:53.457Z,0.73
2023-05-12T03:22:20.107Z,0.80
2023-05-12T03:24:46.725Z,0.90
2023-05-12T03:27:13.422Z,0.80
2023-05-12T03:29:40.070Z,0.77
2023-05-12T03:32:07.136Z,0.80
2023-05-12T03:34:34.001Z,0.80
2023-05-12T03:37:00.873Z,1.15
2023-05-12T03:39:27.483Z,2.30
2023-05-12T03:41:55.124Z,1.80
2023-05-12T03:44:21.732Z,2.22
2023-05-12T03:46:48.364Z,1.70
2023-05-12T03:49:15.052Z,1.70
2023-05-12T03:51:41.643Z,1.60
2023-05-12T03:54:08.602Z,1.27
2023-05-12T03:56:35.586Z,0.95
2023-05-12T03:59:02.189Z,1.10
2023-05-12T04:01:28.854Z,0.82
2023-05-12T04:03:55.709Z,1.00
2023-05-12T04:06:22.365Z,1.08
2023-05-12T04:08:48.950Z,1.13
2023-05-12T04:11:15.578Z,1.05
2023-05-12T04:13:42.350Z,1.30
2023-05-12T04:16:09.897Z,1.20
2023-05-12T04:18:36.865Z,1.20
2023-05-12T04:21:05.372Z,2.10
2023-05-12T04:23:32.394Z,2.30
2023-05-12T04:25:59.037Z,3.33
2023-05-12T04:28:25.763Z,5.07
2023-05-12T04:30:53.017Z,3.70
2023-05-12T04:33:21.374Z,2.50
2023-05-12T04:35:48.132Z,3.45
2023-05-12T04:38:15.948Z,7.70
2023-05-12T04:40:42.753Z,7.00
2023-05-12T04:43:59.810Z,2.42
2023-05-12T04:45:57.064Z,2.08
2023-05-12T04:48:24.902Z,1.40
2023-05-12T04:50:51.499Z,1.27
2023-05-12T04:53:18.596Z,1.40
2023-05-12T04:55:46.135Z,1.30
2023-05-12T04:58:16.413Z,1.25
2023-05-12T05:00:43.963Z,0.98
2023-05-12T05:03:11.018Z,1.17
2023-05-12T05:05:37.919Z,1.52
2023-05-12T05:08:04.994Z,1.27
2023-05-12T05:10:32.376Z,1.10
2023-05-12T05:12:58.965Z,1.45
2023-05-12T05:15:25.616Z,1.00
2023-05-12T05:17:52.358Z,1.10
2023-05-12T05:20:19.894Z,1.00
2023-05-12T05:22:48.364Z,1.10
2023-05-12T05:25:16.755Z,1.00
2023-05-12T05:27:43.428Z,0.90
2023-05-12T05:30:10.453Z,0.80
2023-05-12T05:32:40.376Z,1.02
2023-05-12T05:35:08.345Z,1.20
2023-05-12T05:37:38.550Z,1.13
2023-05-12T05:40:05.928Z,1.40
2023-05-12T05:42:32.503Z,1.20
2023-05-12T05:44:59.715Z,0.63
2023-05-12T05:47:28.197Z,0.55
2023-05-12T05:49:55.467Z,0.68
2023-05-12T05:52:22.644Z,0.75
2023-05-12T05:54:49.316Z,1.00
2023-05-12T05:57:17.421Z,1.35
2023-05-12T05:59:45.065Z,1.10
2023-05-12T06:02:11.756Z,0.85
2023-05-12T06:04:38.384Z,0.85
2023-05-12T06:07:05.181Z,0.88
2023-05-12T06:09:32.414Z,0.80
2023-05-12T06:11:59.052Z,0.80
2023-05-12T06:14:25.700Z,0.90
2023-05-12T06:16:52.292Z,0.60
2023-05-12T06:19:18.921Z,0.50
2023-05-12T06:21:45.586Z,0.73
2023-05-12T06:24:12.768Z,0.70
2023-05-12T06:26:41.180Z,0.75
2023-05-12T06:29:08.266Z,1.02
2023-05-12T06:31:35.061Z,2.70
2023-05-12T06:34:03.048Z,3.72
2023-05-12T06:36:30.199Z,6.43
2023-05-12T06:38:57.260Z,7.55
2023-05-12T06:41:25.077Z,4.30
2023-05-12T06:43:52.126Z,3.40
2023-05-12T06:46:26.978Z,1.27
2023-05-12T06:48:55.336Z,1.38
2023-05-12T06:51:21.958Z,0.80
2023-05-12T06:53:48.967Z,0.80
2023-05-12T06:56:17.294Z,0.77
2023-05-12T06:58:44.051Z,0.70
2023-05-12T07:01:10.732Z,0.40
2023-05-12T07:03:37.395Z,0.50
2023-05-12T07:06:04.151Z,0.57
2023-05-12T07:08:30.859Z,0.40
2023-05-12T07:11:00.018Z,0.70
2023-05-12T07:13:26.937Z,0.60
2023-05-12T07:15:53.607Z,0.50
2023-05-12T07:18:20.310Z,0.60
2023-05-12T07:20:47.002Z,0.55
2023-05-12T07:23:13.668Z,0.40
2023-05-12T07:25:40.608Z,0.40
2023-05-12T07:28:07.564Z,0.65
2023-05-12T07:30:34.251Z,0.70
2023-05-12T07:33:01.480Z,0.70
2023-05-12T07:35:28.346Z,0.50
2023-05-12T07:37:54.966Z,0.40
2023-05-12T07:40:21.627Z,0.70
2023-05-12T07:42:48.518Z,0.63
2023-05-12T07:45:22.832Z,0.65
2023-05-12T07:47:50.892Z,0.32
2023-05-12T07:50:18.954Z,0.30
2023-05-12T07:52:49.720Z,0.38
2023-05-12T07:55:17.702Z,0.30
2023-05-12T07:57:44.581Z,0.20
2023-05-12T08:00:12.369Z,0.40
2023-05-12T08:02:42.933Z,0.30
2023-05-12T08:05:10.812Z,0.30
2023-05-12T08:07:38.608Z,0.20
2023-05-12T08:10:06.527Z,0.30
2023-05-12T08:12:33.795Z,0.25
2023-05-12T08:15:00.392Z,0.30
2023-05-12T08:17:29.139Z,0.30
2023-05-12T08:19:56.044Z,0.20
2023-05-12T08:22:22.796Z,0.30
2023-05-12T08:24:49.425Z,0.40
2023-05-12T08:27:16.039Z,0.17
2023-05-12T08:29:42.611Z,0.20
2023-05-12T08:32:09.242Z,0.10
2023-05-12T08:34:36.171Z,0.30
2023-05-12T08:37:03.108Z,0.20
2023-05-12T08:39:31.055Z,0.32
2023-05-12T08:42:09.473Z,0.30
2023-05-12T08:44:40.035Z,0.30
2023-05-12T08:47:07.114Z,0.20
2023-05-12T08:49:36.409Z,0.22
2023-05-12T08:52:03.762Z,0.15
2023-05-12T08:54:30.838Z,0.15
2023-05-12T08:59:27.162Z,0.40
2023-05-12T09:01:55.167Z,0.40
2023-05-12T09:04:21.886Z,0.85
2023-05-12T09:06:49.015Z,0.40
2023-05-12T09:09:19.887Z,0.30
2023-05-12T09:11:48.324Z,0.22
2023-05-12T09:14:25.468Z,0.30
2023-05-12T09:16:59.901Z,0.40
2023-05-12T09:19:26.824Z,0.40
2023-05-12T09:21:53.523Z,0.40
2023-05-12T09:24:21.075Z,0.35
2023-05-12T09:26:53.102Z,0.40
2023-05-12T09:29:30.038Z,0.60
2023-05-12T09:31:59.483Z,0.50
2023-05-12T09:34:35.667Z,0.50
2023-05-12T09:37:05.423Z,0.30
2023-05-12T09:39:32.398Z,0.40
2023-05-12T09:41:59.078Z,0.47
2023-05-12T09:44:26.836Z,0.52
2023-05-12T09:46:53.607Z,0.50
2023-05-12T09:49:26.786Z,0.30
2023-05-12T09:51:57.275Z,0.32
2023-05-12T09:54:28.441Z,0.40
2023-05-12T09:56:58.783Z,0.30
2023-05-12T09:59:36.233Z,0.32
2023-05-12T10:02:06.384Z,0.40
2023-05-12T10:05:06.233Z,0.30
2023-05-12T10:07:33.622Z,0.20
2023-05-12T10:10:04.768Z,0.28
2023-05-12T10:12:31.518Z,0.30
2023-05-12T10:14:58.901Z,0.30
2023-05-12T10:17:26.876Z,0.20
2023-05-12T10:19:54.948Z,0.35
2023-05-12T10:22:21.846Z,0.20
2023-05-12T10:24:49.380Z,0.60
2023-05-12T10:27:17.183Z,0.40
2023-05-12T10:29:44.600Z,0.40
2023-05-12T10:32:11.522Z,0.60
2023-05-12T10:34:41.931Z,0.43
2023-05-12T10:37:11.388Z,0.40
2023-05-12T10:39:47.417Z,0.52
2023-05-12T10:42:17.408Z,0.30
2023-05-12T10:44:54.139Z,0.30
2023-05-12T10:47:26.834Z,0.40
2023-05-12T10:49:59.969Z,0.30
2023-05-12T10:52:26.637Z,0.30
2023-05-12T10:55:04.027Z,0.40
2023-05-12T10:57:33.308Z,0.30
2023-05-12T11:00:02.029Z,0.20
2023-05-12T11:02:36.686Z,0.20
2023-05-12T11:05:13.168Z,0.40
2023-05-12T11:07:40.307Z,0.45
2023-05-12T11:10:08.510Z,0.43
2023-05-12T11:12:36.107Z,0.50
2023-05-12T11:15:04.818Z,0.47
2023-05-12T11:17:31.933Z,0.70
2023-05-12T11:20:00.738Z,0.55
2023-05-12T11:22:27.583Z,0.30
2023-05-12T11:24:54.266Z,0.40
2023-05-12T11:27:23.514Z,0.60
2023-05-12T11:30:01.775Z,0.60
2023-05-12T11:32:29.731Z,0.70
2023-05-12T11:34:56.913Z,0.45
2023-05-12T11:37:23.663Z,0.35
2023-05-12T11:39:52.922Z,0.30
2023-05-12T11:42:21.586Z,0.50
2023-05-12T11:44:50.713Z,0.30
2023-05-12T11:47:19.817Z,0.40
2023-05-12T11:49:51.423Z,0.40
2023-05-12T11:52:19.839Z,0.40
2023-05-12T11:54:54.263Z,0.40
2023-05-12T11:57:28.873Z,0.50
2023-05-12T12:00:07.144Z,0.50
2023-05-12T12:02:36.031Z,0.50
2023-05-12T12:05:03.376Z,0.40
2023-05-12T12:07:35.385Z,0.55
2023-05-12T12:10:16.763Z,0.43
2023-05-12T12:12:44.738Z,0.40
2023-05-12T12:15:12.415Z,0.35
2023-05-12T12:17:39.917Z,0.40
2023-05-12T12:20:08.127Z,0.40
2023-05-12T12:22:35.644Z,0.40
2023-05-12T12:25:03.624Z,0.60
2023-05-12T12:27:30.967Z,0.40
2023-05-12T12:29:57.827Z,0.40
2023-05-12T12:32:24.529Z,0.30
2023-05-12T12:34:51.555Z,0.50
2023-05-12T12:37:18.154Z,0.30
2023-05-12T12:39:44.795Z,0.30
2023-05-12T12:42:11.368Z,0.40
2023-05-12T12:44:37.942Z,0.40
2023-05-12T12:47:05.057Z,0.40
2023-05-12T12:49:31.768Z,0.45
2023-05-12T12:51:58.383Z,0.40
2023-05-12T12:54:27.335Z,0.40
2023-05-12T12:56:55.384Z,0.50
2023-05-12T12:59:22.106Z,0.38
2023-05-12T13:01:49.051Z,0.52
2023-05-12T13:04:17.133Z,0.73
2023-05-12T13:06:43.886Z,0.70
2023-05-12T13:09:10.808Z,0.60
2023-05-12T13:11:37.603Z,0.68
2023-05-12T13:14:04.603Z,0.70
2023-05-12T13:16:31.649Z,0.75
2023-05-12T13:18:58.351Z,0.77
2023-05-12T13:21:25.293Z,0.77
2023-05-12T13:23:51.984Z,0.88
2023-05-12T13:26:18.565Z,0.88
2023-05-12T13:28:45.307Z,0.60
2023-05-12T13:31:12.198Z,0.80
2023-05-12T13:33:39.246Z,0.80
2023-05-12T13:36:06.336Z,0.85
2023-05-12T13:38:33.899Z,0.82
2023-05-12T13:41:00.635Z,0.93
2023-05-12T13:43:27.280Z,0.50
2023-05-12T13:45:53.884Z,0.60
2023-05-12T13:48:20.806Z,0.70
2023-05-12T13:50:47.709Z,0.93
2023-05-12T13:53:14.315Z,0.88
2023-05-12T13:55:41.347Z,1.00
2023-05-12T13:58:07.981Z,1.10
2023-05-12T14:00:34.624Z,0.98
2023-05-12T14:03:01.687Z,0.80
2023-05-12T14:05:28.929Z,0.70
2023-05-12T14:07:55.730Z,0.90
2023-05-12T14:10:22.322Z,1.42
2023-05-12T14:12:48.972Z,1.60
2023-05-12T14:15:28.874Z,1.38
2023-05-12T14:18:02.283Z,1.10
2023-05-12T14:20:28.973Z,1.60
2023-05-12T14:22:55.807Z,1.00
2023-05-12T14:25:23.859Z,1.27
2023-05-12T14:27:51.024Z,1.05
2023-05-12T14:30:17.920Z,1.20
2023-05-12T14:32:44.668Z,1.17
2023-05-12T14:35:11.582Z,1.30
2023-05-12T14:37:38.420Z,1.15
2023-05-12T14:40:05.693Z,1.20
2023-05-12T14:42:32.412Z,1.23
2023-05-12T14:44:59.270Z,1.10
2023-05-12T14:47:25.965Z,1.27
2023-05-12T14:49:52.614Z,1.05
2023-05-12T14:52:19.228Z,1.30
2023-05-12T14:54:45.845Z,1.20
2023-05-12T14:57:13.570Z,1.38
2023-05-12T14:59:40.205Z,1.10
2023-05-12T15:02:07.763Z,1.30
2023-05-12T15:04:34.519Z,1.30
2023-05-12T15:07:01.071Z,1.52
2023-05-12T15:09:27.633Z,1.20
2023-05-12T15:11:55.081Z,1.20
2023-05-12T15:14:21.753Z,1.40
2023-05-12T15:16:48.415Z,1.13
2023-05-12T15:19:15.291Z,1.13
2023-05-12T15:21:41.991Z,1.30
2023-05-12T15:24:08.640Z,1.20
2023-05-12T15:26:38.295Z,0.80
2023-05-12T15:29:06.463Z,1.20
2023-05-12T15:31:33.134Z,0.80
2023-05-12T15:34:00.478Z,0.95
2023-05-12T15:36:27.109Z,1.10
2023-05-12T15:38:53.714Z,1.30
2023-05-12T15:41:20.428Z,1.05
2023-05-12T15:43:47.044Z,1.05
2023-05-12T15:46:13.649Z,1.10
2023-05-12T15:48:40.317Z,1.30
2023-05-12T15:51:07.004Z,1.08
2023-05-12T15:53:33.961Z,0.90
2023-05-12T15:56:04.938Z,1.00
2023-05-12T15:58:32.040Z,0.98
2023-05-12T16:00:59.098Z,0.75
2023-05-12T16:03:25.935Z,0.73
2023-05-12T16:05:52.682Z,0.75
2023-05-12T16:08:19.249Z,0.80
2023-05-12T16:10:45.854Z,0.80
2023-05-12T16:13:13.730Z,0.70
2023-05-12T16:15:40.688Z,0.80
2023-05-12T16:18:10.234Z,0.60
2023-05-12T16:20:37.927Z,0.60
2023-05-12T16:23:04.748Z,0.85
2023-05-12T16:25:31.399Z,0.77
2023-05-12T16:27:58.067Z,0.80
2023-05-12T16:30:25.036Z,0.68
2023-05-12T16:32:51.757Z,0.90
2023-05-12T16:35:18.611Z,0.90
2023-05-12T16:37:45.388Z,0.90
2023-05-12T16:40:12.284Z,0.60
2023-05-12T16:42:38.890Z,0.68
2023-05-12T16:45:06.392Z,0.70
2023-05-12T16:47:33.022Z,0.70
2023-05-12T16:49:59.861Z,0.88
2023-05-12T16:52:26.860Z,0.90
2023-05-12T16:54:56.114Z,0.90
2023-05-12T16:57:23.400Z,0.98
2023-05-12T16:59:50.291Z,0.90
2023-05-12T17:02:17.129Z,0.90
2023-05-12T17:04:44.709Z,0.93
2023-05-12T17:07:11.434Z,1.10
2023-05-12T17:09:38.065Z,0.82
2023-05-12T17:12:06.733Z,1.13
2023-05-12T17:14:34.943Z,1.10
2023-05-12T17:17:02.324Z,0.90
2023-05-12T17:19:29.813Z,0.82
2023-05-12T17:21:56.448Z,0.90
2023-05-12T17:24:23.211Z,1.10
2023-05-12T17:26:50.577Z,1.10
2023-05-12T17:29:17.678Z,0.88
2023-05-12T17:31:44.392Z,0.90
2023-05-12T17:34:11.013Z,1.00
2023-05-12T17:36:37.999Z,0.98
2023-05-12T17:39:04.629Z,1.20
2023-05-12T17:41:31.308Z,1.00
2023-05-12T17:43:57.908Z,1.20
2023-05-12T17:46:24.648Z,1.05
2023-05-12T17:48:51.845Z,1.00
2023-05-12T17:51:18.528Z,1.10
2023-05-12T17:53:46.196Z,1.00
2023-05-12T17:56:13.077Z,1.83
2023-05-12T17:58:39.721Z,2.00
2023-05-12T18:01:06.392Z,1.95
2023-05-12T18:03:33.387Z,1.50
2023-05-12T18:06:00.008Z,1.70
2023-05-12T18:08:27.263Z,1.10
2023-05-12T18:10:53.943Z,1.50
2023-05-12T18:13:20.665Z,1.10
2023-05-12T18:15:50.045Z,1.20
2023-05-12T18:18:16.967Z,1.48
2023-05-12T18:20:43.833Z,1.30
2023-05-12T18:23:10.543Z,1.30
2023-05-12T18:25:37.311Z,1.58
2023-05-12T18:28:04.034Z,1.50
2023-05-12T18:30:30.726Z,1.45
2023-05-12T18:32:57.424Z,1.50
2023-05-12T18:35:24.802Z,1.75
2023-05-12T18:37:51.444Z,1.38
2023-05-12T18:40:18.052Z,1.50
2023-05-12T18:42:44.987Z,1.40
2023-05-12T18:45:11.929Z,1.33
2023-05-12T18:47:38.859Z,1.33
2023-05-12T18:50:06.385Z,1.30
2023-05-12T18:52:33.129Z,1.30
2023-05-12T18:54:59.885Z,1.23
2023-05-12T18:57:26.725Z,1.10
2023-05-12T18:59:53.577Z,1.60
2023-05-12T19:02:20.296Z,1.90
2023-05-12T19:04:47.070Z,1.55
2023-05-12T19:07:15.516Z,1.58
2023-05-12T19:09:43.351Z,1.63
2023-05-12T19:12:13.326Z,1.58
2023-05-12T19:14:40.341Z,1.52
2023-05-12T19:17:07.612Z,1.60
2023-05-12T19:19:34.731Z,1.38
2023-05-12T19:22:01.533Z,1.50
2023-05-12T19:24:28.226Z,1.60
2023-05-12T19:26:54.928Z,1.80
2023-05-12T19:29:21.709Z,1.27
2023-05-12T19:31:48.682Z,1.38
2023-05-12T19:34:15.416Z,1.30
2023-05-12T19:36:42.418Z,1.05
2023-05-12T19:39:09.052Z,1.20
2023-05-12T19:41:35.750Z,1.15
2023-05-12T19:44:02.393Z,1.27
2023-05-12T19:46:29.479Z,0.98
2023-05-12T19:48:56.087Z,1.10
2023-05-12T19:51:22.767Z,1.10
2023-05-12T19:53:49.385Z,1.20
2023-05-12T19:56:15.970Z,1.20
2023-05-12T19:58:42.596Z,1.15
2023-05-12T20:01:10.389Z,1.10
2023-05-12T20:03:37.088Z,1.40
2023-05-12T20:06:04.687Z,1.42
2023-05-12T20:08:31.268Z,1.30
2023-05-12T20:10:57.876Z,1.35
2023-05-12T20:13:24.502Z,1.40
2023-05-12T20:15:51.064Z,1.23
2023-05-12T20:18:17.829Z,1.13
2023-05-12T20:20:44.848Z,1.50
2023-05-12T20:23:11.521Z,1.05
2023-05-12T20:25:38.081Z,1.20
2023-05-12T20:28:04.813Z,1.33
2023-05-12T20:30:31.389Z,1.23
2023-05-12T20:32:58.132Z,1.08
2023-05-12T20:35:24.764Z,1.30
2023-05-12T20:37:51.375Z,1.20
2023-05-12T20:40:18.375Z,1.23
2023-05-12T20:42:48.316Z,1.17
2023-05-12T20:45:15.838Z,1.17
2023-05-12T20:47:42.731Z,1.50
2023-05-12T20:50:10.814Z,2.38
2023-05-12T20:52:39.078Z,2.00
2023-05-12T20:55:06.909Z,2.65
2023-05-12T20:57:33.810Z,2.15
2023-05-12T21:00:00.574Z,2.78
2023-05-12T21:02:29.043Z,2.80
2023-05-12T21:04:56.082Z,3.28
2023-05-12T21:07:22.762Z,2.50
2023-05-12T21:09:49.388Z,2.10
2023-05-12T21:12:16.063Z,1.80
2023-05-12T21:14:45.137Z,1.80
2023-05-12T21:17:12.370Z,1.55
2023-05-12T21:19:40.305Z,1.50
2023-05-12T21:22:07.885Z,1.88
2023-05-12T21:24:36.453Z,1.70
2023-05-12T21:27:04.826Z,1.80
2023-05-12T21:29:32.894Z,1.60
2023-05-12T21:31:59.859Z,1.80
2023-05-12T21:34:26.734Z,1.90
2023-05-12T21:36:54.641Z,1.70
2023-05-12T21:39:21.932Z,2.10
2023-05-12T21:41:49.043Z,1.90
2023-05-12T21:44:16.329Z,2.08
2023-05-12T21:46:43.332Z,2.35
2023-05-12T21:49:10.264Z,2.25
2023-05-12T21:51:36.858Z,2.40
2023-05-12T21:54:03.647Z,2.30
2023-05-12T21:56:30.231Z,2.72
2023-05-12T21:58:57.028Z,2.50
2023-05-12T22:01:23.657Z,2.40
2023-05-12T22:03:50.254Z,2.60
2023-05-12T22:06:16.882Z,3.00
2023-05-12T22:08:43.509Z,2.67
2023-05-12T22:11:10.793Z,3.00
2023-05-12T22:13:37.443Z,2.60
2023-05-12T22:16:04.351Z,2.45
2023-05-12T22:18:31.714Z,3.20
2023-05-12T22:20:58.882Z,3.65
2023-05-12T22:23:25.586Z,3.50
2023-05-12T22:25:52.331Z,3.78
2023-05-12T22:28:18.933Z,3.75
2023-05-12T22:30:45.612Z,3.17
2023-05-12T22:33:12.301Z,3.00
2023-05-12T22:35:38.895Z,2.80
2023-05-12T22:38:05.701Z,2.50
2023-05-12T22:40:33.524Z,3.17
2023-05-12T22:43:00.161Z,2.67
2023-05-12T22:45:26.792Z,2.63
2023-05-12T22:47:53.639Z,2.60
2023-05-12T22:50:20.866Z,2.92
2023-05-12T22:52:47.800Z,3.17
2023-05-12T22:55:14.442Z,2.97
2023-05-12T22:57:43.558Z,3.00
2023-05-12T23:00:10.569Z,3.20
2023-05-12T23:02:37.215Z,3.38
2023-05-12T23:05:04.227Z,2.85
2023-05-12T23:07:31.143Z,3.22
2023-05-12T23:09:57.787Z,3.20
2023-05-12T23:12:24.359Z,3.10
2023-05-12T23:14:51.047Z,3.17
2023-05-12T23:17:17.699Z,3.70
2023-05-12T23:19:44.319Z,3.42
2023-05-12T23:22:10.881Z,3.00
2023-05-12T23:24:38.194Z,3.55
2023-05-12T23:27:05.015Z,2.85
2023-05-12T23:29:34.459Z,3.55
2023-05-12T23:32:01.106Z,3.05
2023-05-12T23:34:27.784Z,3.10
2023-05-12T23:36:54.565Z,3.08
2023-05-12T23:39:21.143Z,2.72
2023-05-12T23:41:47.848Z,2.50
2023-05-12T23:44:14.433Z,2.72
2023-05-12T23:46:41.218Z,2.80
2023-05-12T23:49:07.828Z,2.85
2023-05-12T23:51:34.826Z,2.70
2023-05-12T23:54:01.405Z,2.55
2023-05-12T23:56:28.030Z,2.65
2023-05-12T23:58:54.600Z,2.45
